Time;durP1;ratioP1;P1;durP2;ratioP2;P2;SDS_P1;SDS_P2;PMS_P1;PMS_P2;Temp;Humidity;BMP_temperature;BMP_pressure;BME280_temperature;BME280_humidity;BME280_pressure;Samples;Min_cycle;Max_cycle;Signal;HPM_P1;HPM_P2
2022/11/07 00:00:45;;;;;;;;;66.33;50.67;;;;;7.28;100.00;99909.78;6300028;20;3626300;-66
2022/11/07 00:03:18;;;;;;;;;66.33;50.00;;;;;7.29;100.00;99906.16;6301890;20;3622641;-65
2022/11/07 00:05:48;;;;;;;;;60.00;46.00;;;;;6.98;100.00;99907.50;6302752;20;2853506;-66
2022/11/07 00:08:18;;;;;;;;;57.00;42.67;;;;;7.36;100.00;99912.97;6302688;20;3620088;-66
2022/11/07 00:10:47;;;;;;;;;54.67;45.00;;;;;7.32;100.00;99911.34;6304281;20;2855447;-65
2022/11/07 00:13:16;;;;;;;;;46.50;39.00;;;;;7.35;100.00;99912.09;6299206;20;2839101;-65
2022/11/07 00:15:46;;;;;;;;;55.33;43.67;;;;;7.37;100.00;99920.03;6269975;20;2875404;-65
2022/11/07 00:18:15;;;;;;;;;57.33;45.00;;;;;7.59;100.00;99931.50;6302497;20;2858635;-66
2022/11/07 00:20:46;;;;;;;;;64.33;52.33;;;;;7.62;100.00;99942.03;6302533;20;2870205;-65
2022/11/07 00:23:15;;;;;;;;;64.33;51.33;;;;;7.65;100.00;99933.88;6305751;20;3629581;-66
2022/11/07 00:25:45;;;;;;;;;68.00;52.67;;;;;7.46;100.00;99933.84;6304793;20;3630471;-66
2022/11/07 00:28:14;;;;;;;;;60.00;48.33;;;;;7.54;100.00;99938.84;6305164;20;3619067;-65
2022/11/07 00:30:44;;;;;;;;;64.00;48.33;;;;;7.33;100.00;99938.00;6302106;20;3613840;-65
2022/11/07 00:33:13;;;;;;;;;52.50;41.50;;;;;7.65;100.00;99936.56;6301990;20;2859662;-65
2022/11/07 00:35:46;;;;;;;;;48.00;36.33;;;;;7.54;100.00;99938.84;6272141;20;3629453;-66
2022/11/07 00:38:17;;;;;;;;;33.00;31.00;;;;;7.44;100.00;99937.53;6302079;20;3611799;-65
2022/11/07 00:41:05;;;;;;;;;43.67;36.00;;;;;7.52;100.00;99943.38;6299296;20;2860826;-65
2022/11/07 00:43:35;;;;;;;;;43.67;38.00;;;;;7.45;100.00;99944.59;6302777;20;2868157;-65
2022/11/07 00:46:07;;;;;;;;;51.00;38.00;;;;;7.35;100.00;99949.50;6304278;20;3616011;-65
2022/11/07 00:48:36;;;;;;;;;50.33;38.00;;;;;7.46;100.00;99947.22;6303250;20;3634793;-64
2022/11/07 00:51:20;;;;;;;;;47.00;37.67;;;;;7.61;100.00;99937.66;6270866;20;3586817;-66
2022/11/07 00:53:51;;;;;;;;;54.33;41.67;;;;;7.50;100.00;99942.59;6270606;20;2866990;-66
2022/11/07 00:56:24;;;;;;;;;49.00;40.00;;;;;7.67;100.00;99933.81;6300956;20;2847269;-66
2022/11/07 00:58:59;;;;;;;;;52.33;40.33;;;;;7.71;100.00;99935.41;6273113;20;2868053;-66
2022/11/07 01:01:33;;;;;;;;;55.67;43.00;;;;;7.83;100.00;99928.63;6302728;20;3609626;-66
2022/11/07 01:06:52;;;;;;;;;60.00;48.00;;;;;7.89;100.00;99944.38;6303092;20;2872300;-65
2022/11/07 01:09:21;;;;;;;;;67.67;49.67;;;;;7.79;100.00;99937.72;6301389;20;3627547;-65
2022/11/07 01:11:51;;;;;;;;;59.33;49.67;;;;;7.79;100.00;99933.25;6303943;20;3625241;-66
2022/11/07 01:14:23;;;;;;;;;66.67;53.00;;;;;7.56;100.00;99931.63;6304561;20;3629426;-66
2022/11/07 01:16:53;;;;;;;;;66.33;51.67;;;;;7.68;100.00;99931.06;6269388;20;3637810;-66
2022/11/07 01:19:25;;;;;;;;;71.00;54.33;;;;;7.68;100.00;99932.88;6300807;20;3630533;-67
2022/11/07 01:21:55;;;;;;;;;72.67;55.00;;;;;7.66;100.00;99927.63;6300237;20;3637743;-64
2022/11/07 01:24:25;;;;;;;;;66.67;52.00;;;;;7.72;100.00;99925.59;6298631;20;3628058;-64
2022/11/07 01:26:55;;;;;;;;;73.33;56.67;;;;;7.72;100.00;99925.59;6300153;20;3625285;-66
2022/11/07 01:29:25;;;;;;;;;74.00;53.00;;;;;7.69;100.00;99921.25;6299457;20;3645060;-66
2022/11/07 01:31:55;;;;;;;;;63.33;51.00;;;;;7.59;100.00;99914.59;6298720;20;2864021;-65
2022/11/07 01:34:26;;;;;;;;;69.33;51.00;;;;;7.42;100.00;99907.34;6302645;20;3646126;-65
2022/11/07 01:36:55;;;;;;;;;58.00;45.33;;;;;7.22;100.00;99906.44;6266085;20;3623260;-66
2022/11/07 01:39:24;;;;;;;;;56.50;42.50;;;;;7.11;100.00;99911.38;6295671;20;2853463;-66
2022/11/07 01:41:54;;;;;;;;;66.33;51.00;;;;;7.24;100.00;99914.34;6267724;20;3638831;-65
2022/11/07 01:44:23;;;;;;;;;71.33;53.00;;;;;7.25;100.00;99921.44;6299511;20;3645384;-66
2022/11/07 01:47:00;;;;;;;;;72.67;56.33;;;;;6.90;100.00;99912.28;6299430;20;3627365;-65
2022/11/07 01:49:37;;;;;;;;;81.67;61.00;;;;;7.04;100.00;99902.75;6300500;20;3627398;-64
2022/11/07 01:52:34;;;;;;;;;87.00;68.67;;;;;7.11;100.00;99907.81;6298878;20;3670042;-65
2022/11/07 01:55:29;;;;;;;;;83.00;65.33;;;;;6.96;100.00;99907.56;6267636;20;3635788;-65
2022/11/07 01:58:05;;;;;;;;;80.67;61.00;;;;;7.31;100.00;99912.28;6298145;20;3636424;-64
2022/11/07 02:00:36;;;;;;;;;83.33;61.00;;;;;7.42;100.00;99908.19;6295393;20;3645935;-65
2022/11/07 02:03:13;;;;;;;;;82.00;60.00;;;;;7.37;100.00;99915.56;6300200;20;3645066;-64
2022/11/07 02:05:56;;;;;;;;;77.00;57.33;;;;;7.20;100.00;99910.09;6266888;20;3651308;-66
2022/11/07 02:08:29;;;;;;;;;81.67;59.33;;;;;7.22;100.00;99911.78;6302080;20;3650263;-65
2022/11/07 02:11:01;;;;;;;;;71.00;54.33;;;;;7.47;100.00;99905.31;6270618;20;3634773;-65
2022/11/07 02:13:32;;;;;;;;;81.00;56.67;;;;;7.20;100.00;99923.47;6298199;20;3634683;-65
2022/11/07 02:16:04;;;;;;;;;73.00;51.00;;;;;7.32;100.00;99914.91;6296581;20;3650319;-65
2022/11/07 02:18:37;;;;;;;;;66.67;50.67;;;;;7.39;100.00;99913.69;6266152;20;3643059;-65
2022/11/07 02:21:39;;;;;;;;;65.00;49.67;;;;;7.23;100.00;99918.84;6300210;20;3648387;-65
2022/11/07 02:24:23;;;;;;;;;64.67;50.67;;;;;7.38;100.00;99921.78;6298926;20;3637811;-65
2022/11/07 02:26:55;;;;;;;;;57.50;46.50;;;;;7.24;100.00;99925.03;6299652;20;2850283;-64
2022/11/07 02:29:26;;;;;;;;;57.67;45.00;;;;;6.91;100.00;99917.56;6267328;20;2875528;-66
2022/11/07 02:32:10;;;;;;;;;55.00;42.00;;;;;6.91;100.00;99916.72;6297127;20;2862909;-63
2022/11/07 02:34:39;;;;;;;;;53.33;39.33;;;;;6.95;100.00;99928.97;6296536;20;2869223;-65
2022/11/07 02:37:37;;;;;;;;;51.00;38.67;;;;;6.97;100.00;99930.66;6299041;20;2865004;-66
2022/11/07 02:40:09;;;;;;;;;44.00;35.00;;;;;7.02;100.00;99917.09;6302198;20;2873410;-66
2022/11/07 02:42:44;;;;;;;;;50.33;37.67;;;;;7.23;100.00;99931.31;6305698;20;3592945;-64
2022/11/07 02:45:23;;;;;;;;;46.50;40.00;;;;;7.29;100.00;99932.84;6267642;20;2855576;-64
2022/11/07 02:47:52;;;;;;;;;42.00;35.67;;;;;7.18;100.00;99926.19;6267662;20;3604562;-65
2022/11/07 02:50:23;;;;;;;;;63.67;43.67;;;;;7.14;100.00;99924.59;6279463;20;3631659;-65
2022/11/07 02:52:52;;;;;;;;;56.67;44.00;;;;;7.22;100.00;99927.78;6300547;20;2858611;-65
2022/11/07 02:55:21;;;;;;;;;54.00;42.50;;;;;7.33;100.00;99934.47;6297599;20;2862907;-67
2022/11/07 02:57:50;;;;;;;;;50.00;40.50;;;;;7.34;100.00;99937.06;6267647;20;2847192;-65
2022/11/07 03:00:18;;;;;;;;;50.50;41.00;;;;;7.45;100.00;99939.25;6265356;20;2500328;-65
2022/11/07 03:02:47;;;;;;;;;58.67;46.00;;;;;7.41;100.00;99932.31;6271244;20;3627428;-65
2022/11/07 03:05:19;;;;;;;;;56.33;46.00;;;;;7.54;100.00;99927.31;6300062;20;2868154;-64
2022/11/07 03:07:49;;;;;;;;;64.33;47.67;;;;;7.76;100.00;99941.41;6299010;20;3634674;-64
2022/11/07 03:10:19;;;;;;;;;63.67;48.00;;;;;7.74;100.00;99940.63;6299951;20;2873357;-65
2022/11/07 03:12:49;;;;;;;;;63.33;50.00;;;;;7.59;100.00;99926.16;6304566;20;3622176;-64
2022/11/07 03:15:18;;;;;;;;;63.67;46.67;;;;;7.78;100.00;99933.31;6301680;20;3635794;-65
2022/11/07 03:17:48;;;;;;;;;65.25;49.50;;;;;7.82;100.00;99927.78;6307134;20;3639833;-66
2022/11/07 03:20:17;;;;;;;;;62.33;47.67;;;;;7.97;100.00;99942.22;6300433;20;3609778;-66
2022/11/07 03:22:47;;;;;;;;;66.00;49.67;;;;;7.73;100.00;99946.88;6303121;20;3634645;-66
2022/11/07 03:25:16;;;;;;;;;59.33;46.00;;;;;7.85;100.00;99948.16;6300629;20;3600417;-65
2022/11/07 03:27:48;;;;;;;;;58.33;44.67;;;;;7.96;100.00;99951.19;6303223;20;3630606;-66
2022/11/07 03:30:18;;;;;;;;;60.00;48.00;;;;;7.94;100.00;99947.72;6301104;20;2862846;-66
2022/11/07 03:32:53;;;;;;;;;58.33;47.00;;;;;8.08;100.00;99942.59;6303440;20;2855521;-66
2022/11/07 03:35:23;;;;;;;;;66.33;49.67;;;;;7.96;100.00;99951.19;6299626;20;3633621;-66
2022/11/07 03:37:53;;;;;;;;;66.33;49.67;;;;;7.95;100.00;99933.38;6296754;20;3642075;-65
2022/11/07 03:40:22;;;;;;;;;73.75;54.00;;;;;7.93;100.00;99937.97;6284986;20;3644605;-64
2022/11/07 03:42:52;;;;;;;;;75.67;54.67;;;;;8.09;100.00;99930.94;6303222;20;3643102;-65
2022/11/07 03:45:22;;;;;;;;;62.33;48.67;;;;;8.28;100.00;99935.41;6299121;20;3621089;-65
2022/11/07 03:47:51;;;;;;;;;64.33;48.00;;;;;8.22;100.00;99933.06;6304423;20;3632633;-64
2022/11/07 03:50:21;;;;;;;;;84.00;71.00;;;;;8.13;100.00;99937.00;6267151;20;3648170;-65
2022/11/07 03:52:51;;;;;;;;;71.67;56.67;;;;;8.22;100.00;99938.41;6269545;20;3620071;-65
2022/11/07 03:55:20;;;;;;;;;71.00;55.00;;;;;8.07;100.00;99932.81;6299246;20;3630660;-65
2022/11/07 03:57:50;;;;;;;;;76.67;59.67;;;;;8.22;100.00;99941.06;6301256;20;3636731;-65
2022/11/07 04:00:19;;;;;;;;;81.33;62.00;;;;;8.06;100.00;99935.59;6267167;20;3640031;-65
2022/11/07 04:02:49;;;;;;;;;77.00;54.00;;;;;8.26;100.00;99943.50;6303874;20;3658694;-65
2022/11/07 04:05:19;;;;;;;;;66.33;49.00;;;;;8.25;100.00;99947.13;6264872;20;3653411;-66
2022/11/07 04:07:48;;;;;;;;;55.00;44.00;;;;;8.28;100.00;99956.81;6299224;20;2872217;-64
2022/11/07 04:10:18;;;;;;;;;69.00;49.67;;;;;8.28;100.00;99951.47;6305201;20;3636702;-66
2022/11/07 04:18:25;;;;;;;;;56.33;43.67;;;;;8.26;100.00;99945.31;6303878;20;3623318;-65
2022/11/07 04:20:55;;;;;;;;;57.67;45.33;;;;;8.46;100.00;99939.06;6301294;20;2871357;-66
2022/11/07 04:23:24;;;;;;;;;65.67;52.33;;;;;8.27;100.00;99937.22;6302991;20;3611772;-65
2022/11/07 04:28:42;;;;;;;;;85.00;63.00;;;;;8.32;100.00;99942.34;6269348;20;3653471;-64
2022/11/07 04:31:11;;;;;;;;;78.67;61.33;;;;;8.34;100.00;99945.81;6272558;20;3623206;-64
2022/11/07 04:33:41;;;;;;;;;61.33;48.67;;;;;8.42;100.00;99942.81;6301219;20;3626399;-65
2022/11/07 04:36:10;;;;;;;;;64.67;46.00;;;;;8.29;100.00;99942.50;6297445;20;3651414;-65
2022/11/07 04:38:40;;;;;;;;;61.00;45.00;;;;;8.24;100.00;99932.03;6266115;20;3643084;-66
2022/11/07 04:41:22;;;;;;;;;57.00;44.00;;;;;8.33;100.00;99939.59;6300948;20;2872240;-65
2022/11/07 04:43:52;;;;;;;;;56.00;43.00;;;;;8.19;100.00;99946.53;6298465;20;3623302;-65
2022/11/07 04:46:22;;;;;;;;;53.33;44.33;;;;;8.30;100.00;99949.59;6303615;20;2850297;-65
2022/11/07 04:48:51;;;;;;;;;50.00;39.67;;;;;8.25;100.00;99951.63;6303441;20;2861379;-65
2022/11/07 04:51:23;;;;;;;;;48.33;41.00;;;;;8.21;100.00;99961.56;6298091;20;2853621;-65
2022/11/07 04:53:52;;;;;;;;;48.67;39.00;;;;;8.33;100.00;99944.09;6300557;20;2857722;-65
2022/11/07 04:56:22;;;;;;;;;53.33;39.33;;;;;8.26;100.00;99945.31;6303285;20;2859861;-65
2022/11/07 04:58:50;;;;;;;;;44.50;39.50;;;;;8.07;100.00;99951.53;6303112;20;2852408;-65
2022/11/07 05:01:20;;;;;;;;;57.00;46.67;;;;;8.42;100.00;99957.03;6268035;20;2862983;-65
2022/11/07 05:03:49;;;;;;;;;59.00;47.00;;;;;8.48;100.00;99954.09;6304968;20;2860668;-66
2022/11/07 05:06:19;;;;;;;;;59.00;48.00;;;;;8.29;100.00;99948.75;6303960;20;3613815;-65
2022/11/07 05:08:49;;;;;;;;;66.33;50.33;;;;;8.14;100.00;99962.84;6304194;20;3625358;-65
2022/11/07 05:11:18;;;;;;;;;55.50;45.00;;;;;8.12;100.00;99962.91;6303656;20;2822112;-64
2022/11/07 05:13:47;;;;;;;;;53.33;42.33;;;;;8.19;100.00;99951.91;6268004;20;3605489;-66
2022/11/07 05:16:17;;;;;;;;;56.00;44.67;;;;;8.27;100.00;99950.59;6297761;20;2876458;-65
2022/11/07 05:18:46;;;;;;;;;55.33;46.00;;;;;8.22;100.00;99952.63;6298953;20;2868221;-66
2022/11/07 05:21:15;;;;;;;;;62.33;46.00;;;;;7.88;100.00;99958.69;6298778;20;3621124;-66
2022/11/07 05:23:45;;;;;;;;;64.33;50.67;;;;;7.82;100.00;99940.25;6302192;20;3627473;-65
2022/11/07 05:26:14;;;;;;;;;58.00;44.00;;;;;7.85;100.00;99932.13;6294210;20;3629517;-66
2022/11/07 05:28:43;;;;;;;;;58.50;46.00;;;;;7.83;100.00;99939.31;6302154;20;2855524;-65
2022/11/07 05:31:16;;;;;;;;;56.50;47.00;;;;;7.67;100.00;99929.34;6268434;20;2853632;-65
2022/11/07 05:33:45;;;;;;;;;49.00;42.00;;;;;7.79;100.00;99951.94;6269304;20;2858649;-65
2022/11/07 05:36:19;;;;;;;;;55.00;40.67;;;;;7.65;100.00;99955.25;6264252;20;3618037;-64
2022/11/07 05:38:51;;;;;;;;;49.00;40.00;;;;;7.71;100.00;99962.13;6299651;20;2837811;-64
2022/11/07 05:41:21;;;;;;;;;56.33;42.00;;;;;7.78;100.00;99970.75;6268666;20;3611845;-65
2022/11/07 05:43:51;;;;;;;;;56.00;44.00;;;;;7.56;100.00;99966.38;6297553;20;3615875;-66
2022/11/07 05:46:20;;;;;;;;;51.33;42.00;;;;;7.82;100.00;99969.66;6300399;20;2861918;-66
2022/11/07 05:48:50;;;;;;;;;72.67;53.33;;;;;7.73;100.00;99983.44;6301429;20;3637845;-65
2022/11/07 05:51:26;;;;;;;;;69.67;52.67;;;;;7.98;100.00;99991.19;6266045;20;3630523;-64
2022/11/07 05:53:55;;;;;;;;;68.33;52.33;;;;;8.06;100.00;99994.41;6298770;20;3642436;-66
2022/11/07 05:56:25;;;;;;;;;66.00;52.00;;;;;8.01;100.00;100007.13;6298585;20;3635872;-65
2022/11/07 05:58:55;;;;;;;;;63.33;50.00;;;;;8.28;100.00;100011.19;6298781;20;3615924;-66
2022/11/07 06:01:24;;;;;;;;;65.00;49.33;;;;;8.10;100.00;100012.03;6299701;20;3636736;-65
2022/11/07 06:03:54;;;;;;;;;57.33;47.00;;;;;8.29;100.00;100018.28;6301930;20;2859276;-65
2022/11/07 06:06:23;;;;;;;;;55.00;44.67;;;;;8.37;100.00;100015.22;6296632;20;3611859;-66
2022/11/07 06:08:53;;;;;;;;;59.00;45.00;;;;;8.35;100.00;100011.78;6300860;20;2867139;-65
2022/11/07 06:11:21;;;;;;;;;53.50;41.00;;;;;8.26;100.00;100009.53;6298225;20;2862745;-67
2022/11/07 06:13:53;;;;;;;;;65.00;43.00;;;;;8.42;100.00;100017.72;6269093;20;3634717;-65
2022/11/07 06:16:23;;;;;;;;;55.67;44.00;;;;;8.42;100.00;100017.72;6293537;20;3618084;-65
2022/11/07 06:18:52;;;;;;;;;59.33;42.67;;;;;8.40;100.00;100031.19;6301337;20;3628377;-65
2022/11/07 06:21:22;;;;;;;;;53.00;40.00;;;;;8.53;100.00;100026.09;6294420;20;2869065;-67
2022/11/07 06:23:51;;;;;;;;;50.00;37.00;;;;;8.55;100.00;100022.41;6302033;20;3603392;-65
2022/11/07 06:26:19;;;;;;;;;47.50;38.50;;;;;8.79;100.00;100035.56;6268425;20;2850290;-64
2022/11/07 06:28:49;;;;;;;;;51.33;39.67;;;;;8.81;100.00;100039.03;6262809;20;3610735;-66
2022/11/07 06:31:19;;;;;;;;;60.33;43.00;;;;;8.92;100.00;100044.72;6298378;20;3628459;-65
2022/11/07 06:33:50;;;;;;;;;53.33;42.33;;;;;8.87;100.00;100041.41;6299618;20;2857753;-65
2022/11/07 06:36:19;;;;;;;;;58.33;43.67;;;;;8.92;100.00;100050.06;6297442;20;2876355;-65
2022/11/07 06:38:52;;;;;;;;;46.67;35.00;;;;;9.19;100.00;100052.34;6298825;20;3607598;-65
2022/11/07 06:41:21;;;;;;;;;54.33;42.67;;;;;9.24;100.00;100044.94;6298657;20;2864881;-66
2022/11/07 06:43:51;;;;;;;;;43.00;37.00;;;;;9.24;100.00;100047.59;6296236;20;3604662;-65
2022/11/07 06:46:22;;;;;;;;;53.67;40.67;;;;;9.01;100.00;100052.31;6267396;20;2867054;-65
2022/11/07 06:48:51;;;;;;;;;49.00;36.33;;;;;8.98;100.00;100048.94;6298213;20;2863914;-67
2022/11/07 06:51:20;;;;;;;;;49.67;38.00;;;;;9.11;100.00;100059.88;6298990;20;2863801;-66
2022/11/07 06:53:50;;;;;;;;;58.33;44.00;;;;;9.14;100.00;100054.41;6297703;20;3619094;-66
2022/11/07 06:56:19;;;;;;;;;50.00;42.00;;;;;9.04;100.00;100048.63;6298511;20;2855534;-66
2022/11/07 06:58:48;;;;;;;;;53.33;42.33;;;;;8.99;100.00;100050.66;6267340;20;2864940;-66
2022/11/07 07:01:18;;;;;;;;;52.67;43.67;;;;;8.94;100.00;100047.34;6296420;20;3610708;-66
2022/11/07 07:03:47;;;;;;;;;52.00;42.33;;;;;8.99;100.00;100051.53;6300640;20;3605646;-65
2022/11/07 07:06:17;;;;;;;;;60.67;44.33;;;;;9.10;100.00;100052.81;6297061;20;3646111;-67
2022/11/07 07:08:48;;;;;;;;;57.33;44.67;;;;;9.07;100.00;100052.97;6300143;20;3628418;-65
2022/11/07 07:11:17;;;;;;;;;57.33;45.00;;;;;9.07;100.00;100050.28;6297579;20;3630528;-66
2022/11/07 07:13:47;;;;;;;;;56.33;45.67;;;;;9.11;100.00;100062.56;6295217;20;2871254;-66
2022/11/07 07:16:16;;;;;;;;;55.00;44.67;;;;;9.20;100.00;100059.44;6296224;20;3613831;-66
2022/11/07 07:18:46;;;;;;;;;57.00;44.67;;;;;9.41;100.00;100063.72;6299674;20;2878627;-66
2022/11/07 07:21:15;;;;;;;;;50.33;39.00;;;;;9.30;100.00;100058.03;6298856;20;3601336;-67
2022/11/07 07:23:44;;;;;;;;;57.67;44.67;;;;;9.31;100.00;100062.44;6301236;20;3619024;-66
2022/11/07 07:26:15;;;;;;;;;54.33;41.00;;;;;9.38;100.00;100068.38;6267093;20;3622149;-65
2022/11/07 07:28:45;;;;;;;;;55.00;44.33;;;;;9.41;100.00;100066.41;6294067;20;3616914;-67
2022/11/07 07:31:14;;;;;;;;;58.33;44.67;;;;;9.52;100.00;100064.97;6296300;20;3637742;-65
2022/11/07 07:33:46;;;;;;;;;66.33;51.00;;;;;9.55;100.00;100054.09;6299494;20;3632563;-66
2022/11/07 07:36:17;;;;;;;;;61.00;48.33;;;;;9.47;100.00;100062.53;6296387;20;3615931;-65
2022/11/07 07:38:50;;;;;;;;;57.00;43.67;;;;;9.41;100.00;100061.03;6291726;20;3615063;-66
2022/11/07 07:41:20;;;;;;;;;55.67;45.00;;;;;9.51;100.00;100065.94;6296578;20;2856661;-66
2022/11/07 07:43:49;;;;;;;;;57.67;46.00;;;;;9.41;100.00;100066.41;6294730;20;3625252;-65
2022/11/07 07:46:22;;;;;;;;;57.00;43.00;;;;;9.41;100.00;100063.72;6298604;20;3623339;-65
2022/11/07 07:48:52;;;;;;;;;52.00;43.33;;;;;9.52;100.00;100067.66;6295679;20;2859827;-66
2022/11/07 07:51:22;;;;;;;;;53.67;43.67;;;;;9.58;100.00;100078.06;6294298;20;3606548;-65
2022/11/07 07:53:52;;;;;;;;;56.33;44.00;;;;;9.64;100.00;100080.44;6297965;20;3612752;-65
2022/11/07 07:56:22;;;;;;;;;52.67;43.00;;;;;9.55;100.00;100070.19;6296029;20;3610712;-66
2022/11/07 07:58:52;;;;;;;;;58.33;47.67;;;;;9.58;100.00;100080.75;6298122;20;3609767;-66
2022/11/07 08:01:21;;;;;;;;;57.33;46.00;;;;;9.81;100.00;100067.03;6301127;20;2854548;-66
2022/11/07 08:03:51;;;;;;;;;62.33;48.00;;;;;9.76;100.00;100066.38;6305169;20;3624247;-64
2022/11/07 08:06:31;;;;;;;;;62.33;50.00;;;;;9.77;100.00;100059.22;6303450;20;3626536;-66
2022/11/07 08:09:01;;;;;;;;;66.33;51.00;;;;;9.88;100.00;100072.94;6274157;20;3639835;-65
2022/11/07 08:11:31;;;;;;;;;65.67;50.33;;;;;9.72;100.00;100058.59;6304793;20;3628513;-65
2022/11/07 08:14:00;;;;;;;;;62.67;50.67;;;;;9.97;100.00;100076.94;6306077;20;3620126;-65
2022/11/07 08:16:30;;;;;;;;;61.00;49.67;;;;;10.05;100.00;100075.59;6302950;20;3619206;-66
2022/11/07 08:19:00;;;;;;;;;62.00;49.67;;;;;10.08;100.00;100070.06;6308007;20;3619025;-66
2022/11/07 08:21:32;;;;;;;;;58.67;46.33;;;;;9.94;100.00;100061.88;6300602;20;3624454;-66
2022/11/07 08:24:02;;;;;;;;;61.33;48.00;;;;;10.01;100.00;100073.16;6303834;20;3622233;-66
2022/11/07 08:26:32;;;;;;;;;59.67;46.67;;;;;10.03;100.00;100071.25;6301768;20;3619170;-65
2022/11/07 08:29:01;;;;;;;;;63.00;48.67;;;;;10.09;100.00;100073.63;6308460;20;3624239;-67
2022/11/07 08:31:30;;;;;;;;;61.67;46.67;;;;;9.94;100.00;100075.28;6271781;20;3651318;-66
2022/11/07 08:34:02;;;;;;;;;65.67;48.33;;;;;10.05;100.00;100074.72;6273233;20;3643994;-66
2022/11/07 08:36:33;;;;;;;;;60.33;47.00;;;;;10.17;100.00;100074.06;6305797;20;3627375;-65
2022/11/07 08:39:05;;;;;;;;;60.33;48.67;;;;;10.03;100.00;100081.97;6307624;20;3623179;-67
2022/11/07 08:41:35;;;;;;;;;58.33;45.33;;;;;10.06;100.00;100069.28;6306365;20;3622263;-66
2022/11/07 08:44:07;;;;;;;;;58.67;46.67;;;;;9.95;100.00;100070.78;6304757;20;3631520;-66
2022/11/07 08:46:36;;;;;;;;;61.00;46.33;;;;;10.17;100.00;100071.41;6302811;20;3633687;-67
2022/11/07 08:49:06;;;;;;;;;56.00;44.33;;;;;10.13;100.00;100061.75;6274493;20;3611756;-66
2022/11/07 08:51:35;;;;;;;;;60.33;46.33;;;;;10.39;100.00;100072.94;6301915;20;3631602;-66
2022/11/07 08:54:05;;;;;;;;;61.33;47.00;;;;;10.40;100.00;100074.66;6304754;20;3640890;-67
2022/11/07 08:56:35;;;;;;;;;55.33;44.33;;;;;10.51;100.00;100080.34;6269432;20;2858789;-67
2022/11/07 08:59:05;;;;;;;;;57.33;45.00;;;;;10.40;100.00;100077.34;6303954;20;3617956;-66
2022/11/07 09:01:35;;;;;;;;;55.33;45.00;;;;;10.50;100.00;100081.25;6301627;20;3606651;-66
2022/11/07 09:04:25;;;;;;;;;63.33;48.67;;;;;10.42;100.00;100083.50;6304441;20;3635690;-66
2022/11/07 09:06:58;;;;;;;;;59.67;48.00;;;;;10.35;100.00;100087.47;6303642;20;3623167;-66
2022/11/07 09:09:27;;;;;;;;;65.00;47.67;;;;;10.26;100.00;100091.50;6304261;20;3652399;-66
2022/11/07 09:11:57;;;;;;;;;61.33;48.00;;;;;10.35;100.00;100087.47;6265114;20;3636849;-67
2022/11/07 09:14:26;;;;;;;;;57.33;46.00;;;;;10.29;100.00;100084.19;6304922;20;3620182;-67
2022/11/07 09:16:57;;;;;;;;;57.33;47.67;;;;;10.24;100.00;100086.22;6269057;20;3614959;-67
2022/11/07 09:19:27;;;;;;;;;57.00;44.67;;;;;10.29;100.00;100089.56;6301603;20;3617006;-66
2022/11/07 09:21:57;;;;;;;;;55.50;45.50;;;;;10.25;100.00;100093.31;6304258;20;3547207;-67
2022/11/07 09:24:26;;;;;;;;;51.33;42.67;;;;;10.31;100.00;100095.69;6303061;20;3620090;-66
2022/11/07 09:26:59;;;;;;;;;58.33;46.00;;;;;10.42;100.00;100089.72;6303516;20;3623250;-65
2022/11/07 09:29:29;;;;;;;;;55.67;42.00;;;;;10.43;100.00;100096.84;6303090;20;3624297;-67
2022/11/07 09:31:59;;;;;;;;;57.00;45.00;;;;;10.31;100.00;100090.31;6302604;20;3620105;-66
2022/11/07 09:34:48;;;;;;;;;57.33;43.33;;;;;10.25;100.00;100101.38;6302546;20;3631534;-66
2022/11/07 09:37:25;;;;;;;;;54.00;41.33;;;;;9.95;100.00;100090.41;6303420;20;3617960;-66
2022/11/07 09:39:55;;;;;;;;;56.33;39.67;;;;;10.17;100.00;100100.03;6306264;20;3641921;-67
2022/11/07 09:43:05;;;;;;;;;54.33;43.00;;;;;10.26;100.00;100100.41;6271333;20;3625273;-66
2022/11/07 09:46:18;;;;;;;;;54.67;42.00;;;;;10.16;100.00;100106.34;6308052;20;3615895;-65
2022/11/07 09:49:04;;;;;;;;;59.67;45.67;;;;;9.98;100.00;100094.75;6268096;20;3634692;-66
2022/11/07 09:51:39;;;;;;;;;58.33;43.67;;;;;9.88;100.00;100095.25;6306199;20;3628652;-67
2022/11/07 09:54:20;;;;;;;;;61.00;43.33;;;;;10.10;100.00;100104.84;6298684;20;3632544;-65
2022/11/07 09:56:51;;;;;;;;;58.00;47.00;;;;;10.20;100.00;100099.88;6302413;20;2871295;-66
2022/11/07 09:59:28;;;;;;;;;55.67;45.67;;;;;10.30;100.00;100102.03;6302828;20;2863994;-65
2022/11/07 10:01:58;;;;;;;;;58.67;45.00;;;;;10.18;100.00;100097.25;6298699;20;3627456;-67
2022/11/07 10:04:29;;;;;;;;;58.67;44.67;;;;;10.15;100.00;100092.06;6300544;20;3621159;-66
2022/11/07 10:07:13;;;;;;;;;56.00;45.00;;;;;10.24;100.00;100101.44;6304248;20;3608624;-67
2022/11/07 10:10:06;;;;;;;;;61.67;46.00;;;;;10.27;100.00;100099.50;6300059;20;3632568;-66
2022/11/07 10:13:27;;;;;;;;;63.00;48.67;;;;;10.41;100.00;100087.16;6301742;20;3644042;-66
2022/11/07 10:16:31;;;;;;;;;63.67;49.00;;;;;10.47;100.00;100086.81;6297253;20;3628483;-66
2022/11/07 10:19:19;;;;;;;;;70.67;54.67;;;;;10.45;100.00;100086.00;6300062;20;3613926;-67
2022/11/07 10:22:16;;;;;;;;;68.33;50.67;;;;;10.47;100.00;100071.56;6267938;20;3642036;-67
2022/11/07 10:25:23;;;;;;;;;53.67;42.33;;;;;10.50;100.00;100081.25;6266730;20;3619031;-67
2022/11/07 10:28:14;;;;;;;;;63.00;48.33;;;;;10.39;100.00;100073.81;6299735;20;3641952;-66
2022/11/07 10:30:58;;;;;;;;;57.67;46.33;;;;;10.52;100.00;100074.00;6295864;20;3609628;-66
2022/11/07 10:33:38;;;;;;;;;56.67;46.67;;;;;10.63;100.00;100071.56;6270584;20;3648424;-65
2022/11/07 10:36:31;;;;;;;;;59.00;47.33;;;;;10.57;100.00;100065.69;6262149;20;3592226;-66
2022/11/07 10:39:11;;;;;;;;;60.67;48.33;;;;;10.74;100.00;100061.13;6294960;20;3624219;-66
2022/11/07 10:42:19;;;;;;;;;52.33;41.33;;;;;10.40;100.00;100063.94;6301705;20;3606513;-66
2022/11/07 10:44:53;;;;;;;;;55.67;44.67;;;;;10.55;100.00;100063.09;6300502;20;3627477;-66
2022/11/07 10:47:26;;;;;;;;;65.67;50.33;;;;;10.54;100.00;100059.53;6297635;20;3626287;-66
2022/11/07 10:50:20;;;;;;;;;61.67;48.33;;;;;10.62;100.00;100051.06;6265987;20;3633636;-70
2022/11/07 10:53:02;;;;;;;;;66.75;50.00;;;;;10.80;100.00;100061.72;6300037;20;3637869;-64
2022/11/07 10:55:44;;;;;;;;;60.67;48.33;;;;;10.63;100.00;100062.66;6302822;20;3620091;-65
2022/11/07 10:58:22;;;;;;;;;61.25;48.25;;;;;10.65;100.00;100064.31;6270285;20;3629464;-66
2022/11/07 11:01:08;;;;;;;;;59.67;47.67;;;;;10.70;100.00;100058.69;6294069;20;3614880;-66
2022/11/07 11:03:48;;;;;;;;;60.33;47.67;;;;;10.87;100.00;100055.03;6299237;20;3621172;-66
2022/11/07 11:06:17;;;;;;;;;60.67;49.67;;;;;10.79;100.00;100055.47;6268724;20;3607620;-66
2022/11/07 11:08:50;;;;;;;;;63.67;50.67;;;;;10.81;100.00;100058.09;6266767;20;3628387;-67
2022/11/07 11:11:36;;;;;;;;;68.33;51.67;;;;;10.90;100.00;100054.84;6296699;20;3625373;-66
2022/11/07 11:14:14;;;;;;;;;61.50;47.00;;;;;10.82;100.00;100057.13;6270341;20;4390039;-67
2022/11/07 11:16:47;;;;;;;;;53.33;39.33;;;;;10.93;100.00;100054.72;6298510;20;3609723;-66
2022/11/07 11:19:23;;;;;;;;;65.00;51.67;;;;;10.77;100.00;100047.53;6297244;20;3631517;-66
2022/11/07 11:21:56;;;;;;;;;66.00;49.67;;;;;10.81;100.00;100036.59;6297187;20;3632551;-66
2022/11/07 11:24:36;;;;;;;;;58.00;47.00;;;;;10.83;100.00;100042.75;6301474;20;3631582;-66
2022/11/07 11:27:17;;;;;;;;;62.67;50.33;;;;;10.86;100.00;100046.13;6269462;20;3627438;-66
2022/11/07 11:30:18;;;;;;;;;59.00;46.33;;;;;10.86;100.00;100039.88;6293439;20;3633624;-66
2022/11/07 11:33:03;;;;;;;;;60.33;46.00;;;;;11.09;100.00;100038.56;6297746;20;3639910;-66
2022/11/07 11:35:54;;;;;;;;;62.75;47.75;;;;;11.06;100.00;100036.94;6306463;20;3627351;-66